Time;durP1;ratioP1;P1;durP2;ratioP2;P2;SDS_P1;SDS_P2;PMS_P1;PMS_P2;Temp;Humidity;BMP_temperature;BMP_pressure;BME280_temperature;BME280_humidity;BME280_pressure;Samples;Min_cycle;Max_cycle;Signal;HPM_P1;HPM_P2
2021/04/26 00:01:08;;;;;;;7.55;3.85;;;;;;;8.54;56.21;101530.16;6339692;22;20089;-93
2021/04/26 00:03:33;;;;;;;6.57;3.83;;;;;;;8.77;54.97;101530.97;6339527;22;20051;-94
2021/04/26 00:05:59;;;;;;;12.20;3.83;;;;;;;8.72;55.60;101521.53;6339522;22;20084;-93
2021/04/26 00:08:24;;;;;;;11.23;3.25;;;;;;;8.63;55.56;101535.03;6338541;22;19995;-93
2021/04/26 00:10:50;;;;;;;8.40;3.90;;;;;;;8.48;55.65;101528.66;6339385;22;20010;-94
2021/04/26 00:13:15;;;;;;;6.97;3.03;;;;;;;8.45;55.81;101527.91;6338124;22;20032;-94
2021/04/26 00:15:41;;;;;;;7.50;3.60;;;;;;;8.52;55.55;101535.47;6337853;22;20005;-94
2021/04/26 00:18:06;;;;;;;10.77;3.80;;;;;;;8.46;55.17;101522.63;6338157;22;20034;-92
2021/04/26 00:20:32;;;;;;;7.35;3.55;;;;;;;8.46;54.29;101509.53;6339910;22;20307;-91
2021/04/26 00:22:59;;;;;;;9.45;2.97;;;;;;;8.60;54.49;101535.16;6338102;22;20062;-92
2021/04/26 00:25:24;;;;;;;5.68;3.05;;;;;;;8.34;54.89;101531.81;6338911;22;20577;-91
2021/04/26 00:27:50;;;;;;;5.43;3.13;;;;;;;8.41;55.32;101526.31;6338044;22;20268;-94
2021/04/26 00:30:18;;;;;;;3.88;2.75;;;;;;;8.54;54.79;101536.25;6338143;22;20316;-93
2021/04/26 00:32:44;;;;;;;11.30;3.25;;;;;;;8.29;55.29;101531.16;6338276;22;20449;-94
2021/04/26 00:35:11;;;;;;;6.97;3.00;;;;;;;8.47;54.55;101528.72;6336777;22;20325;-93
2021/04/26 00:37:36;;;;;;;6.75;3.20;;;;;;;8.16;55.36;101514.25;6337223;22;20009;-93
2021/04/26 00:40:04;;;;;;;6.18;3.20;;;;;;;8.08;55.95;101518.94;6340227;22;20421;-94
2021/04/26 00:42:29;;;;;;;5.53;3.22;;;;;;;8.26;55.44;101519.97;6339182;22;20027;-93
2021/04/26 00:44:55;;;;;;;6.75;3.00;;;;;;;8.53;54.43;101512.75;6338475;22;20002;-93
2021/04/26 00:47:20;;;;;;;9.25;3.15;;;;;;;8.74;53.57;101522.31;6340273;22;20444;-94
2021/04/26 00:49:46;;;;;;;7.32;3.00;;;;;;;8.19;54.60;101508.88;6339534;22;20026;-94
2021/04/26 00:52:11;;;;;;;7.22;2.75;;;;;;;8.04;55.13;101493.81;6337662;22;20002;-93
2021/04/26 00:54:37;;;;;;;7.18;3.42;;;;;;;7.94;55.29;101491.56;6337725;22;20471;-93
2021/04/26 00:57:02;;;;;;;12.82;3.05;;;;;;;7.93;55.48;101504.69;6339442;22;20441;-94
2021/04/26 00:59:28;;;;;;;6.55;2.88;;;;;;;7.93;55.45;101507.28;6339773;22;20073;-93
2021/04/26 01:01:54;;;;;;;9.95;3.53;;;;;;;7.92;55.71;101506.44;6338099;22;19999;-93
2021/04/26 01:04:19;;;;;;;8.02;2.83;;;;;;;7.91;55.72;101502.13;6365210;22;20013;-94
2021/04/26 01:06:45;;;;;;;5.05;3.08;;;;;;;7.88;55.65;101510.09;6338549;22;20278;-94
2021/04/26 01:09:11;;;;;;;5.75;2.42;;;;;;;7.82;55.35;101505.13;6365398;22;19999;-94
2021/04/26 01:12:01;;;;;;;8.25;3.25;;;;;;;7.93;55.75;101499.44;6338674;22;20097;-94
2021/04/26 01:14:32;;;;;;;6.90;2.85;;;;;;;7.74;56.23;101501.91;6365168;22;20089;-94
2021/04/26 01:17:05;;;;;;;7.45;2.53;;;;;;;7.82;56.08;101505.13;6351268;22;20003;-92
2021/04/26 01:20:09;;;;;;;5.10;2.22;;;;;;;7.94;55.19;101488.94;6367403;22;19995;-93
2021/04/26 01:23:05;;;;;;;10.20;2.80;;;;;;;7.87;55.77;101504.94;6370931;22;20022;-93
2021/04/26 01:25:33;;;;;;;13.20;3.33;;;;;;;7.79;55.70;101502.59;6337450;22;20007;-93
2021/04/26 01:28:04;;;;;;;4.75;2.22;;;;;;;8.01;54.88;101505.22;6338884;22;20005;-94
2021/04/26 01:30:52;;;;;;;5.82;2.28;;;;;;;7.95;54.93;101492.41;6337303;22;20437;-93
2021/04/26 01:33:24;;;;;;;7.70;2.75;;;;;;;7.83;55.04;101490.28;6338486;22;20011;-93
2021/04/26 01:35:51;;;;;;;5.28;2.15;;;;;;;7.65;55.75;101499.69;6338774;22;20014;-92
2021/04/26 01:38:20;;;;;;;4.32;2.85;;;;;;;7.83;54.89;101506.81;6336933;22;20023;-93
2021/04/26 01:40:48;;;;;;;14.05;3.42;;;;;;;7.53;56.04;101490.53;6363714;22;20430;-93
2021/04/26 01:43:18;;;;;;;5.07;2.63;;;;;;;7.72;55.58;101491.53;6363627;22;19994;-92
2021/04/26 01:45:45;;;;;;;4.80;2.45;;;;;;;7.52;55.42;101486.22;6337029;22;20014;-92
2021/04/26 01:48:11;;;;;;;11.25;2.38;;;;;;;7.58;55.32;101485.97;6338876;22;20009;-92
2021/04/26 01:50:38;;;;;;;8.38;2.67;;;;;;;7.44;55.38;101468.19;6363250;22;20321;-93
2021/04/26 01:53:03;;;;;;;8.35;2.50;;;;;;;7.46;55.44;101482.06;6339206;22;20011;-93
2021/04/26 01:55:29;;;;;;;6.40;2.72;;;;;;;7.64;54.77;101470.09;6338862;22;20007;-93
2021/04/26 01:57:57;;;;;;;8.13;2.88;;;;;;;7.52;55.54;101488.81;6363324;22;20006;-93
2021/04/26 02:00:26;;;;;;;5.07;2.30;;;;;;;7.70;55.07;101490.75;6363513;22;20087;-93
2021/04/26 02:02:53;;;;;;;5.43;2.83;;;;;;;7.65;54.58;101476.16;6338797;22;19999;-92
2021/04/26 02:05:19;;;;;;;9.07;2.50;;;;;;;7.41;55.81;101483.16;6338798;22;20025;-92
2021/04/26 02:07:49;;;;;;;8.13;2.45;;;;;;;7.55;55.46;101476.50;6338131;22;20434;-92
2021/04/26 02:10:21;;;;;;;6.72;2.22;;;;;;;7.28;55.96;101482.75;6338684;22;20003;-92
2021/04/26 02:12:48;;;;;;;4.28;2.55;;;;;;;7.30;56.22;101478.31;6338486;22;20009;-92
2021/04/26 02:15:19;;;;;;;5.88;2.40;;;;;;;7.29;55.49;101466.19;6363662;22;20434;-92
2021/04/26 02:17:47;;;;;;;10.73;4.30;;;;;;;7.27;56.28;101476.69;6336750;22;20006;-92
2021/04/26 02:20:15;;;;;;;8.90;2.47;;;;;;;7.25;55.36;101457.59;6338218;22;20151;-92
2021/04/26 02:22:41;;;;;;;5.80;2.75;;;;;;;7.41;55.20;101468.34;6338285;22;20422;-92
2021/04/26 02:25:09;;;;;;;5.78;2.38;;;;;;;7.45;54.76;101461.25;6336870;22;20002;-92
2021/04/26 02:27:35;;;;;;;4.65;2.45;;;;;;;7.40;54.63;101456.16;6338566;22;20086;-91
2021/04/26 02:30:01;;;;;;;7.10;2.50;;;;;;;7.15;55.64;101446.66;6337868;22;20041;-91
2021/04/26 02:32:29;;;;;;;10.10;2.45;;;;;;;7.03;55.64;101451.44;6338360;22;20060;-91
2021/04/26 02:35:00;;;;;;;9.05;2.33;;;;;;;7.20;55.62;101456.06;6336830;22;19999;-91
2021/04/26 02:37:57;;;;;;;7.47;2.28;;;;;;;7.39;54.92;101458.84;6338511;22;20116;-91
2021/04/26 02:40:24;;;;;;;6.25;2.15;;;;;;;7.40;55.05;101448.31;6338139;22;20032;-91
2021/04/26 02:42:52;;;;;;;4.57;2.28;;;;;;;7.34;55.17;101452.03;6336390;22;20056;-91
2021/04/26 02:45:25;;;;;;;6.95;2.50;;;;;;;7.38;55.04;101446.69;6362890;22;20002;-91
2021/04/26 02:47:53;;;;;;;6.35;2.63;;;;;;;6.97;56.44;101428.19;6337833;22;19999;-91
2021/04/26 02:50:22;;;;;;;7.80;2.35;;;;;;;7.07;55.74;101440.84;6336721;22;20335;-92
2021/04/26 02:52:48;;;;;;;8.23;2.47;;;;;;;7.03;56.24;101435.78;6338094;22;20003;-93
2021/04/26 02:55:17;;;;;;;2.72;2.15;;;;;;;7.25;55.11;101441.94;6336638;22;20030;-92
2021/04/26 02:57:43;;;;;;;8.93;2.75;;;;;;;7.19;55.49;101436.06;6336463;22;20007;-92
2021/04/26 03:00:14;;;;;;;5.32;2.45;;;;;;;7.10;55.54;101419.84;6336862;22;20029;-92
2021/04/26 03:02:41;;;;;;;8.02;2.95;;;;;;;6.92;56.30;101412.69;6336621;22;20090;-92
2021/04/26 03:05:08;;;;;;;6.75;2.60;;;;;;;7.20;55.48;101443.00;6338172;22;20006;-92
2021/04/26 03:07:36;;;;;;;10.23;2.65;;;;;;;6.96;56.05;101440.41;6362643;22;20073;-92
2021/04/26 03:10:08;;;;;;;8.63;2.20;;;;;;;7.06;55.94;101441.75;6336991;22;20007;-92
2021/04/26 03:12:35;;;;;;;4.70;2.40;;;;;;;7.03;55.58;101441.88;6362742;22;20017;-92
2021/04/26 03:15:02;;;;;;;7.05;2.83;;;;;;;7.07;55.90;101440.84;6338183;22;20007;-92
2021/04/26 03:17:28;;;;;;;3.50;2.70;;;;;;;7.01;56.12;101432.38;6337840;22;20425;-92
2021/04/26 03:19:54;;;;;;;5.75;2.75;;;;;;;6.67;57.06;101425.75;6362502;22;20013;-92
2021/04/26 03:22:22;;;;;;;6.80;2.45;;;;;;;6.75;56.87;101429.81;6337949;22;20042;-91
2021/04/26 03:24:48;;;;;;;5.70;2.58;;;;;;;6.98;56.08;101428.13;6337837;22;20426;-93
2021/04/26 03:27:17;;;;;;;7.78;2.58;;;;;;;6.98;56.11;101412.47;6337908;22;20003;-92
2021/04/26 03:29:44;;;;;;;9.70;2.60;;;;;;;6.92;56.15;101428.34;6336332;22;20088;-91
2021/04/26 03:32:13;;;;;;;7.07;2.63;;;;;;;6.88;56.67;101438.06;6336290;22;20010;-91
2021/04/26 03:34:40;;;;;;;7.80;2.45;;;;;;;6.95;56.27;101426.50;6336504;22;19998;-91
2021/04/26 03:37:05;;;;;;;4.93;2.45;;;;;;;6.87;56.46;101410.25;6337833;22;19999;-92
2021/04/26 03:39:31;;;;;;;5.30;3.13;;;;;;;6.84;56.68;101417.34;6362435;22;20328;-91
2021/04/26 03:41:56;;;;;;;6.85;2.30;;;;;;;6.84;56.71;101412.97;6335951;22;20002;-93
2021/04/26 03:44:22;;;;;;;6.00;3.08;;;;;;;6.80;56.14;101416.59;6336060;22;19999;-92
2021/04/26 03:47:02;;;;;;;11.07;3.35;;;;;;;6.73;56.72;101395.09;6367539;22;20050;-91
2021/04/26 03:49:27;;;;;;;6.05;2.65;;;;;;;6.75;56.61;101411.56;6363936;22;19983;-89
2021/04/26 03:51:53;;;;;;;9.93;2.65;;;;;;;6.57;57.22;101400.91;6346615;22;20003;-91
2021/04/26 03:54:19;;;;;;;5.72;2.88;;;;;;;6.06;58.74;101393.06;6337676;22;20038;-92
2021/04/26 03:56:45;;;;;;;4.22;2.47;;;;;;;6.48;57.41;101395.09;6337525;22;19999;-91
2021/04/26 03:59:10;;;;;;;6.57;2.92;;;;;;;6.55;57.42;101396.56;6337732;22;20003;-92
2021/04/26 04:01:36;;;;;;;8.30;3.22;;;;;;;6.34;58.19;101405.19;6337656;22;20031;-93
2021/04/26 04:04:03;;;;;;;6.05;2.72;;;;;;;6.42;57.96;101394.44;6335738;22;20006;-92
2021/04/26 04:06:28;;;;;;;11.55;2.85;;;;;;;6.24;58.47;101389.00;6337614;22;20421;-91
2021/04/26 04:08:54;;;;;;;5.68;2.80;;;;;;;6.43;58.16;101389.19;6336291;22;20010;-92
2021/04/26 04:11:19;;;;;;;4.13;2.50;;;;;;;6.41;57.94;101379.72;6335816;22;20003;-92
2021/04/26 04:13:44;;;;;;;4.63;2.60;;;;;;;6.35;57.47;101371.19;6337693;22;20007;-91
2021/04/26 04:16:10;;;;;;;5.47;2.78;;;;;;;6.51;57.53;101371.50;6338185;22;20410;-92
2021/04/26 04:18:35;;;;;;;4.90;2.55;;;;;;;6.50;57.47;101387.25;6339299;22;20298;-92
2021/04/26 04:21:01;;;;;;;10.90;2.85;;;;;;;6.53;57.29;101380.13;6339442;22;19998;-92
2021/04/26 04:23:26;;;;;;;4.25;2.38;;;;;;;6.42;57.40;101379.69;6338818;22;20097;-91
2021/04/26 04:25:52;;;;;;;8.27;2.60;;;;;;;6.33;57.93;101382.59;6339072;22;20442;-92
2021/04/26 04:28:18;;;;;;;5.25;2.38;;;;;;;6.41;58.18;101372.75;6337722;22;20003;-91
2021/04/26 04:30:43;;;;;;;7.40;2.72;;;;;;;6.44;57.93;101379.63;6337929;22;20440;-91
2021/04/26 04:33:09;;;;;;;4.07;2.20;;;;;;;6.37;57.71;101365.94;6339273;22;20066;-91
2021/04/26 04:35:34;;;;;;;5.60;2.58;;;;;;;6.39;57.45;101358.06;6339281;22;19999;-91
2021/04/26 04:38:05;;;;;;;6.70;2.85;;;;;;;6.50;57.44;101368.97;6337141;22;20003;-92
2021/04/26 04:40:30;;;;;;;4.00;2.63;;;;;;;6.41;57.91;101375.34;6337489;22;20007;-92
2021/04/26 04:42:56;;;;;;;6.07;2.67;;;;;;;6.33;57.67;101362.56;6364083;22;20404;-92
2021/04/26 04:45:21;;;;;;;6.13;2.80;;;;;;;6.28;57.30;101340.16;6339051;22;19999;-92
2021/04/26 04:47:46;;;;;;;8.30;2.67;;;;;;;6.46;57.54;101368.22;6339076;22;20003;-92
2021/04/26 04:50:12;;;;;;;6.07;3.55;;;;;;;6.44;57.54;101372.66;6339001;22;20005;-92
2021/04/26 04:52:38;;;;;;;4.45;3.42;;;;;;;6.40;57.64;101372.78;6337356;22;20094;-91
2021/04/26 04:55:04;;;;;;;4.40;2.58;;;;;;;6.30;58.08;101377.47;6338835;22;20394;-92
2021/04/26 04:57:29;;;;;;;4.30;2.45;;;;;;;6.40;57.61;101373.66;6338617;22;20013;-92
2021/04/26 04:59:55;;;;;;;5.63;2.38;;;;;;;6.44;57.16;101369.19;6339385;22;20463;-92
2021/04/26 05:02:20;;;;;;;5.43;2.58;;;;;;;6.43;57.40;101362.25;6339009;22;20105;-91
2021/04/26 05:04:46;;;;;;;4.28;2.45;;;;;;;6.32;57.39;101350.44;6337521;22;20003;-92
2021/04/26 05:07:11;;;;;;;6.10;2.25;;;;;;;6.30;57.82;101356.59;6337347;22;20056;-92
2021/04/26 05:09:36;;;;;;;4.43;3.10;;;;;;;6.41;57.43;101367.53;6338282;22;20005;-92
2021/04/26 05:12:02;;;;;;;7.47;2.95;;;;;;;6.25;58.08;101362.00;6338977;22;20111;-92
2021/04/26 05:14:28;;;;;;;5.90;3.20;;;;;;;6.30;57.90;101364.44;6339181;22;19998;-91
2021/04/26 05:16:53;;;;;;;6.72;2.75;;;;;;;6.41;57.54;101358.84;6339012;22;19999;-91
2021/04/26 05:19:19;;;;;;;4.28;2.60;;;;;;;6.35;57.72;101363.38;6363498;22;20166;-91
2021/04/26 05:21:44;;;;;;;5.63;2.70;;;;;;;6.28;58.02;101356.69;6338742;22;20029;-92
2021/04/26 05:24:10;;;;;;;8.00;2.88;;;;;;;6.26;58.60;101360.22;6337714;22;20037;-92
2021/04/26 05:26:36;;;;;;;5.13;2.60;;;;;;;6.33;58.07;101354.75;6338844;22;20006;-92
2021/04/26 05:29:02;;;;;;;15.30;3.25;;;;;;;6.40;57.90;101357.13;6338827;22;20002;-92
2021/04/26 05:31:28;;;;;;;4.10;2.80;;;;;;;6.19;59.19;101349.16;6339201;22;20040;-91
2021/04/26 05:33:53;;;;;;;6.75;2.88;;;;;;;6.26;58.37;101341.97;6338395;22;20002;-90
2021/04/26 05:36:18;;;;;;;4.63;2.60;;;;;;;6.51;57.83;101363.69;6339151;22;20009;-91
2021/04/26 05:38:44;;;;;;;5.07;2.72;;;;;;;6.45;57.55;101353.47;6336844;22;20026;-92
2021/04/26 05:41:09;;;;;;;3.08;2.72;;;;;;;6.54;58.01;101367.94;6339194;22;20003;-92
2021/04/26 05:43:34;;;;;;;11.43;3.15;;;;;;;6.51;57.59;101360.22;6337385;22;20509;-91
2021/04/26 05:46:00;;;;;;;5.03;2.70;;;;;;;6.58;58.20;101360.88;6336892;22;20010;-89
2021/04/26 05:48:25;;;;;;;8.73;3.05;;;;;;;6.54;57.53;101354.91;6338397;22;20059;-90
2021/04/26 05:50:53;;;;;;;7.78;2.80;;;;;;;6.52;57.65;101349.75;6338196;22;19994;-92
2021/04/26 05:53:19;;;;;;;4.97;2.75;;;;;;;6.64;57.19;101352.81;6338711;22;20007;-90
2021/04/26 05:55:44;;;;;;;8.80;3.05;;;;;;;6.66;57.33;101364.06;6342062;22;19995;-96
2021/04/26 05:58:11;;;;;;;3.90;2.70;;;;;;;6.59;57.51;101352.97;6349463;22;20003;-96
2021/04/26 06:00:37;;;;;;;8.27;2.97;;;;;;;6.48;57.81;101349.91;6344170;22;20136;-96
2021/04/26 06:03:03;;;;;;;4.15;2.78;;;;;;;6.62;57.53;101357.25;6350706;22;19999;-94
2021/04/26 06:08:13;;;;;;;7.47;3.00;;;;;;;6.34;57.24;101321.72;6316651;22;20044;-95
2021/04/26 06:42:42;;;;;;;8.20;2.60;;;;;;;8.24;52.43;101328.16;6264866;22;20018;-96
2021/04/26 06:45:09;;;;;;;3.38;2.28;;;;;;;8.57;51.36;101338.97;6372262;22;20006;-95
2021/04/26 06:47:35;;;;;;;5.00;2.33;;;;;;;8.41;51.66;101324.78;6339545;22;20014;-93
2021/04/26 06:50:01;;;;;;;5.10;2.90;;;;;;;8.77;51.02;101345.03;6337945;22;19995;-94
2021/04/26 06:52:26;;;;;;;8.25;3.20;;;;;;;9.01;50.33;101336.06;6338365;22;20007;-90
2021/04/26 06:54:52;;;;;;;4.57;2.33;;;;;;;9.26;49.87;101353.25;6339542;22;19995;-94
2021/04/26 06:57:17;;;;;;;7.97;2.50;;;;;;;9.04;50.09;101333.28;6310201;22;20387;-92
2021/04/26 06:59:42;;;;;;;7.82;2.50;;;;;;;9.23;48.78;101351.63;6338444;22;19995;-93
2021/04/26 07:02:08;;;;;;;5.35;2.15;;;;;;;9.48;48.77;101348.69;6338678;22;20007;-93
2021/04/26 07:04:33;;;;;;;6.25;2.40;;;;;;;9.69;47.81;101348.56;6341179;22;20003;-95
2021/04/26 07:06:59;;;;;;;3.95;2.33;;;;;;;9.90;47.63;101337.00;6337668;22;20081;-95
2021/04/26 07:09:25;;;;;;;11.25;2.67;;;;;;;9.91;47.49;101348.34;6337989;22;20010;-93
2021/04/26 07:11:50;;;;;;;8.45;2.17;;;;;;;10.23;46.55;101338.84;6335991;22;19999;-92
2021/04/26 07:14:16;;;;;;;6.60;2.50;;;;;;;10.14;46.66;101344.56;6336418;22;20437;-94
2021/04/26 07:16:42;;;;;;;5.95;2.38;;;;;;;10.04;46.28;101328.44;6337107;22;19998;-95
2021/04/26 07:19:08;;;;;;;8.07;2.67;;;;;;;10.08;45.88;101344.88;6336962;22;20085;-94
2021/04/26 07:21:34;;;;;;;4.57;2.20;;;;;;;10.20;45.66;101349.50;6336593;22;20002;-93
2021/04/26 07:23:59;;;;;;;7.03;2.67;;;;;;;9.97;45.94;101347.19;6335561;22;20041;-92
2021/04/26 07:26:24;;;;;;;3.53;2.03;;;;;;;9.89;46.46;101340.56;6336091;22;20007;-93
2021/04/26 07:28:50;;;;;;;5.55;2.38;;;;;;;9.50;46.49;101338.97;6335766;22;20078;-93
2021/04/26 07:31:16;;;;;;;6.82;2.50;;;;;;;9.62;46.73;101339.31;6336727;22;20006;-92
2021/04/26 07:33:41;;;;;;;7.90;2.95;;;;;;;9.04;47.84;101335.91;6336403;22;20436;-91
2021/04/26 07:36:07;;;;;;;10.40;3.10;;;;;;;9.56;47.06;101337.84;6336628;22;20014;-94
2021/04/26 07:38:33;;;;;;;4.63;2.47;;;;;;;9.57;47.57;101346.53;6336487;22;20329;-93
2021/04/26 07:40:59;;;;;;;5.95;2.70;;;;;;;9.58;46.40;101335.13;6336442;22;20029;-93
2021/04/26 07:43:25;;;;;;;5.57;2.47;;;;;;;9.78;46.63;101334.16;6337022;22;20014;-93
2021/04/26 07:45:50;;;;;;;10.50;2.72;;;;;;;9.55;47.23;101336.13;6337603;22;20069;-93
2021/04/26 07:48:15;;;;;;;7.88;2.50;;;;;;;10.03;46.56;101323.25;6335729;22;20379;-93
2021/04/26 07:50:41;;;;;;;4.53;2.40;;;;;;;9.70;46.76;101316.19;6337493;22;19998;-93
2021/04/26 07:53:08;;;;;;;8.65;2.80;;;;;;;10.09;46.23;101328.19;6360829;22;20086;-96
2021/04/26 07:55:33;;;;;;;4.22;1.83;;;;;;;9.75;46.21;101322.03;6339718;22;20077;-95
2021/04/26 07:57:59;;;;;;;6.80;2.05;;;;;;;10.06;45.24;101331.00;6365923;22;20002;-94
2021/04/26 08:00:24;;;;;;;4.13;2.25;;;;;;;9.96;45.60;101335.00;6339562;22;20003;-96
2021/04/26 08:02:50;;;;;;;8.00;2.55;;;;;;;9.84;45.75;101331.22;6339182;22;20006;-96
2021/04/26 08:05:15;;;;;;;4.32;2.00;;;;;;;10.34;45.12;101332.22;6340796;22;20010;-96
2021/04/26 08:07:42;;;;;;;4.35;2.30;;;;;;;10.11;44.75;101345.56;6340740;22;20095;-96
2021/04/26 08:10:08;;;;;;;4.22;2.40;;;;;;;9.70;45.66;101316.19;6360297;22;20063;-95
2021/04/26 08:12:33;;;;;;;6.40;2.55;;;;;;;9.64;46.07;101340.94;6369892;22;19998;-94
2021/04/26 08:14:59;;;;;;;3.40;2.03;;;;;;;9.80;45.83;101329.69;6363089;22;20093;-95
2021/04/26 08:17:24;;;;;;;3.53;2.25;;;;;;;10.06;44.67;101310.00;6346506;22;19998;-96
2021/04/26 08:19:50;;;;;;;7.72;2.53;;;;;;;9.99;45.74;101316.47;6343795;22;20018;-95
2021/04/26 08:22:15;;;;;;;3.80;2.00;;;;;;;10.12;45.41;101330.69;6346603;22;20006;-92
2021/04/26 08:24:41;;;;;;;3.72;2.63;;;;;;;9.90;45.68;101321.25;6345900;22;20425;-94
2021/04/26 08:27:06;;;;;;;4.13;2.33;;;;;;;9.87;45.54;101316.19;6344886;22;20009;-95
2021/04/26 08:29:32;;;;;;;8.82;2.30;;;;;;;9.92;45.66;101301.06;6346821;22;20001;-94
2021/04/26 08:31:57;;;;;;;6.13;2.25;;;;;;;10.23;45.17;101320.47;6346511;22;20010;-95
2021/04/26 08:34:22;;;;;;;4.07;2.60;;;;;;;10.49;45.52;101315.66;6344069;22;20047;-96
2021/04/26 08:36:48;;;;;;;6.93;2.72;;;;;;;10.73;44.36;101334.50;6345694;22;20138;-93
2021/04/26 08:39:17;;;;;;;7.43;2.13;;;;;;;10.75;43.95;101326.56;6348345;22;20002;-92
2021/04/26 08:41:44;;;;;;;8.38;2.20;;;;;;;10.69;43.73;101325.94;6349588;22;20006;-93
2021/04/26 08:44:10;;;;;;;5.28;2.65;;;;;;;11.03;43.84;101321.47;6355997;22;19999;-94
2021/04/26 08:46:35;;;;;;;6.47;2.13;;;;;;;10.82;43.89;101299.00;6370878;22;20077;-92
2021/04/26 08:49:01;;;;;;;5.45;2.53;;;;;;;11.21;43.59;101297.72;6381979;22;20007;-93
2021/04/26 08:51:28;;;;;;;6.80;2.30;;;;;;;11.04;43.13;101299.53;6346045;22;20090;-94
2021/04/26 08:53:53;;;;;;;5.20;2.42;;;;;;;10.67;44.13;101292.81;6370968;22;20010;-92
2021/04/26 08:56:19;;;;;;;10.95;2.85;;;;;;;11.09;43.22;101278.25;6341880;22;20329;-92
2021/04/26 08:58:44;;;;;;;5.00;2.70;;;;;;;11.21;43.03;101289.84;6341972;22;20026;-92
2021/04/26 09:01:09;;;;;;;5.10;2.28;;;;;;;11.42;42.96;101266.75;6342861;22;20009;-91
2021/04/26 09:03:39;;;;;;;5.75;1.98;;;;;;;11.55;42.73;101294.00;6345844;22;20002;-91
2021/04/26 09:06:10;;;;;;;8.55;2.10;;;;;;;11.69;43.44;101285.34;6350215;22;20012;-90
2021/04/26 09:08:36;;;;;;;5.45;2.35;;;;;;;11.75;42.56;101284.13;6353055;22;19990;-92
2021/04/26 09:11:07;;;;;;;5.20;2.25;;;;;;;11.74;42.37;101282.44;6350248;22;20006;-94
2021/04/26 09:13:42;;;;;;;6.68;2.10;;;;;;;11.85;41.92;101254.56;6345444;22;20424;-93
2021/04/26 09:16:21;;;;;;;5.60;2.25;;;;;;;12.22;41.48;101252.38;6346148;22;20007;-93
2021/04/26 09:18:51;;;;;;;4.82;2.50;;;;;;;12.10;42.89;101271.53;6345660;22;20306;-93
2021/04/26 09:21:26;;;;;;;4.20;2.10;;;;;;;12.26;41.39;101260.91;6347025;22;20006;-93
2021/04/26 09:24:24;;;;;;;3.72;2.17;;;;;;;12.70;40.91;101267.84;6346098;22;20322;-92
2021/04/26 09:27:04;;;;;;;3.15;2.00;;;;;;;12.67;40.80;101245.16;6346021;22;20010;-93
2021/04/26 09:29:32;;;;;;;4.10;2.00;;;;;;;12.28;40.57;101257.25;6346029;22;20024;-92
2021/04/26 09:32:15;;;;;;;7.10;2.65;;;;;;;12.64;40.01;101255.91;6345304;22;19998;-92
2021/04/26 09:34:46;;;;;;;6.88;2.13;;;;;;;12.76;39.60;101258.72;6372273;22;20006;-91
2021/04/26 09:37:12;;;;;;;7.43;2.40;;;;;;;12.68;40.18;101262.66;6344624;22;20002;-91
2021/04/26 09:40:08;;;;;;;6.97;2.20;;;;;;;12.92;39.70;101264.69;6344067;22;20429;-92
2021/04/26 09:42:49;;;;;;;2.88;2.08;;;;;;;13.16;39.35;101261.41;6345190;22;20010;-94
2021/04/26 09:45:44;;;;;;;3.45;1.90;;;;;;;13.77;38.23;101238.03;6345561;22;20437;-94
2021/04/26 09:48:26;;;;;;;6.80;2.22;;;;;;;13.87;38.20;101229.38;6341529;22;20007;-93
2021/04/26 09:50:51;;;;;;;5.45;1.88;;;;;;;14.33;38.34;101241.16;6345408;22;19999;-93
2021/04/26 09:53:17;;;;;;;2.75;1.48;;;;;;;14.64;36.13;101218.72;6373089;22;19999;-94
2021/04/26 09:55:43;;;;;;;5.03;1.83;;;;;;;15.07;35.38;101218.22;6345632;22;20081;-93
2021/04/26 09:58:09;;;;;;;5.82;1.40;;;;;;;15.49;36.92;101224.88;6345469;22;20486;-95
2021/04/26 10:00:35;;;;;;;9.93;1.85;;;;;;;16.79;34.73;101201.41;6345155;22;20002;-95
2021/04/26 10:03:01;;;;;;;6.25;1.67;;;;;;;17.69;32.68;101212.59;6345399;22;20034;-92
2021/04/26 10:05:26;;;;;;;3.38;1.80;;;;;;;18.44;31.19;101214.06;6345102;22;20425;-94
2021/04/26 10:07:52;;;;;;;5.07;1.50;;;;;;;18.84;29.77;101207.91;6345018;22;19998;-94
2021/04/26 10:10:18;;;;;;;5.72;1.30;;;;;;;19.97;28.33;101211.72;6344911;22;20003;-94
2021/04/26 10:12:43;;;;;;;5.70;1.23;;;;;;;21.05;26.64;101209.25;6344541;22;20013;-93
2021/04/26 10:15:10;;;;;;;7.38;1.42;;;;;;;21.13;26.49;101204.00;6345070;22;20363;-93
2021/04/26 10:17:37;;;;;;;3.72;1.02;;;;;;;21.09;27.35;101170.59;6344809;22;19994;-94
2021/04/26 10:20:04;;;;;;;3.50;1.00;;;;;;;21.61;24.95;101202.72;6344328;22;20002;-94
2021/04/26 10:22:38;;;;;;;3.15;1.20;;;;;;;22.36;25.00;101208.31;6373443;22;20017;-93
2021/04/26 10:25:07;;;;;;;10.23;1.38;;;;;;;22.32;25.52;101195.44;6371291;22;20002;-93
2021/04/26 10:27:35;;;;;;;5.25;1.27;;;;;;;22.42;23.89;101160.53;6348457;22;20018;-92
2021/04/26 10:30:11;;;;;;;5.07;1.20;;;;;;;22.84;24.64;101167.59;6378692;22;20003;-93
2021/04/26 10:32:57;;;;;;;5.75;1.08;;;;;;;23.32;23.13;101169.47;6348163;22;20085;-94
2021/04/26 10:35:24;;;;;;;2.50;1.10;;;;;;;23.29;22.57;101153.72;6344002;22;20093;-92
2021/04/26 10:37:50;;;;;;;2.92;1.05;;;;;;;23.46;23.29;101151.00;6371719;22;19990;-94
2021/04/26 10:40:18;;;;;;;4.97;1.30;;;;;;;23.74;22.22;101138.06;6341941;22;20056;-93
2021/04/26 10:42:50;;;;;;;4.18;1.40;;;;;;;23.81;22.70;101136.38;6371372;22;20078;-93
2021/04/26 10:45:22;;;;;;;6.20;1.27;;;;;;;23.72;23.84;101140.91;6343991;22;20013;-93
2021/04/26 10:47:54;;;;;;;5.45;1.30;;;;;;;23.81;23.64;101141.72;6342897;22;20038;-93
2021/04/26 10:50:19;;;;;;;4.15;1.42;;;;;;;24.25;22.96;101135.84;6370219;22;19994;-93
2021/04/26 10:52:49;;;;;;;3.53;1.08;;;;;;;24.09;21.72;101131.41;6370063;22;20059;-93
2021/04/26 10:55:23;;;;;;;2.97;1.13;;;;;;;24.08;21.82;101145.00;6342973;22;20328;-92
2021/04/26 10:57:59;;;;;;;2.28;0.85;;;;;;;25.26;20.13;101143.88;6342321;22;20298;-92
2021/04/26 11:00:29;;;;;;;4.07;1.20;;;;;;;24.53;20.98;101133.53;6369872;22;20010;-92
2021/04/26 11:03:06;;;;;;;6.53;1.40;;;;;;;25.04;20.23;101129.41;6342311;22;20104;-94
2021/04/26 11:05:39;;;;;;;3.85;0.98;;;;;;;25.44;19.43;101130.09;6343059;22;19998;-93
2021/04/26 11:08:17;;;;;;;3.67;1.23;;;;;;;24.80;21.28;101119.72;6343870;22;19999;-93
2021/04/26 11:10:50;;;;;;;5.00;1.60;;;;;;;23.98;21.85;101093.41;6345396;22;20091;-94
2021/04/26 11:13:31;;;;;;;7.03;1.70;;;;;;;23.79;22.48;101100.03;6346499;22;20003;-93
2021/04/26 11:16:04;;;;;;;6.57;1.50;;;;;;;24.59;21.04;101094.38;6370027;22;19995;-91
2021/04/26 11:18:32;;;;;;;7.70;1.77;;;;;;;25.19;19.32;101092.66;6359267;22;20007;-93
2021/04/26 11:20:57;;;;;;;6.13;1.35;;;;;;;24.41;21.39;101089.28;6374603;22;20059;-92
2021/04/26 11:23:46;;;;;;;5.72;1.88;;;;;;;24.15;22.39;101077.03;6342994;22;20006;-93
2021/04/26 11:26:13;;;;;;;5.85;1.75;;;;;;;24.12;22.58;101082.75;6371950;22;20561;-93
2021/04/26 11:29:03;;;;;;;3.22;0.98;;;;;;;25.71;21.02;101078.34;6343338;22;20421;-92
2021/04/26 11:31:41;;;;;;;5.30;1.70;;;;;;;25.72;21.13;101080.00;6341516;22;20029;-90
2021/04/26 11:34:15;;;;;;;8.27;1.63;;;;;;;25.88;20.23;101073.56;6369001;22;20012;-91
2021/04/26 11:37:00;;;;;;;7.85;1.25;;;;;;;25.44;21.27;101065.56;6369105;22;20033;-91
2021/04/26 11:39:36;;;;;;;4.78;1.50;;;;;;;25.71;20.39;101064.03;6341285;22;20007;-93
2021/04/26 11:42:03;;;;;;;3.15;1.10;;;;;;;25.37;20.88;101053.88;6368945;22;20006;-93
2021/04/26 11:44:31;;;;;;;7.88;1.20;;;;;;;25.61;19.40;101056.28;6341209;22;19998;-94
2021/04/26 11:47:11;;;;;;;3.72;0.98;;;;;;;25.95;18.52;101049.47;6368677;22;20009;-93
2021/04/26 11:49:42;;;;;;;3.33;1.20;;;;;;;26.18;18.92;101035.00;6368568;22;20002;-92
2021/04/26 11:52:17;;;;;;;3.88;1.25;;;;;;;26.28;18.16;101035.50;6368938;22;20009;-90
2021/04/26 11:54:45;;;;;;;4.03;1.10;;;;;;;25.69;20.52;101031.97;6368338;22;20003;-90
2021/04/26 11:57:19;;;;;;;3.65;1.35;;;;;;;25.86;19.31;101035.25;6368771;22;19995;-91
2021/04/26 11:59:55;;;;;;;5.18;1.20;;;;;;;25.85;18.99;101035.44;6340262;22;19999;-90
2021/04/26 12:02:31;;;;;;;4.53;1.27;;;;;;;25.13;19.14;101036.97;6368494;22;20002;-90
2021/04/26 12:04:58;;;;;;;4.60;1.40;;;;;;;25.82;21.19;101030.44;6373025;22;20422;-90
2021/04/26 12:07:24;;;;;;;9.68;1.30;;;;;;;26.05;19.43;101025.78;6373133;22;20421;-90
2021/04/26 12:10:01;;;;;;;4.05;1.08;;;;;;;26.89;18.40;101025.06;6373135;22;20027;-90